Stations météo

réclame
Mon MeteoGroup
Rodkallen, Suède (2188): Température de l'air & dewpoint: 11.12.2018 07:00:00 - 17.12.2018 07:00:00 (CET)Rodkallen, Suède (2188): Vitesse du vent & gusts: 11.12.2018 07:00:00 - 17.12.2018 07:00:00 (CET)Rodkallen, Suède (2188): Direction du vent: 11.12.2018 07:00:00 - 17.12.2018 07:00:00 (CET)Rodkallen, Suède (2188): visibility: 11.12.2018 07:00:00 - 17.12.2018 07:00:00 (CET)Rodkallen, Suède (2188): Quantités de précipitations: 11.12.2018 07:00:00 - 17.12.2018 07:00:00 (CET)
Date & Time tt [°C] td [°C] ff [km/h] ff [knt] fx [km/h] fx [knt] dd vv [km] rr [mm]
17.12.2018 07:00:00 - - - - - - - - -
17.12.2018 06:00:00 -1,8 -4,3 19 11 32 18 SE 50 0,0
17.12.2018 05:00:00 -1,7 -4,5 22 12 36 19 SSE 50 0,0
17.12.2018 04:00:00 -1,3 -4,1 25 14 39 21 SSE 50 0,0
17.12.2018 03:00:00 -0,9 -3,6 31 17 39 21 S 50 0,0
17.12.2018 02:00:00 -0,4 -2,8 32 17 38 21 S 50 0,0
17.12.2018 01:00:00 -0,3 -2,0 23 12 34 18 SW 24 0,0
17.12.2018 00:00:00 -0,3 -2,7 19 10 24 13 S 50 0,0
16.12.2018 23:00:00 -1,2 -2,3 10 6 21 12 ESE 23 0,0
16.12.2018 22:00:00 -2,6 -5,1 15 8 17 9 ENE 34 0,0
16.12.2018 21:00:00 -3,9 -5,3 10 5 16 9 NNE 44 0,0
16.12.2018 20:00:00 -3,5 -4,5 7 4 41 22 NW 29 0,0
16.12.2018 19:00:00 -3,4 -4,5 19 10 41 22 WNW 3,0 0,2
16.12.2018 18:00:00 -1,5 -3,2 30 16 42 23 SSE 41 0,0
16.12.2018 17:00:00 -1,5 -3,2 33 18 42 23 SSE 30 0,0
16.12.2018 16:00:00 -1,2 -2,6 31 17 40 21 S 3,8 0,1
16.12.2018 15:00:00 -1,1 -2,2 29 16 35 19 S 12 -
16.12.2018 14:00:00 -4,2 -5,0 5 3 16 8 NNW 26 0,0
16.12.2018 13:00:00 -4,1 -4,8 6 3 16 8 NW 13 -
16.12.2018 12:00:00 -1,1 -1,7 9 5 15 8 SW 18 0,3
16.12.2018 11:00:00 -2,1 -2,7 4 2 9 5 E 1,6 0,3
16.12.2018 10:00:00 -3,1 -3,8 0 0 11 6 N 16 0,1
16.12.2018 09:00:00 -4,7 -5,5 3 1 13 7 ENE 49 0,0
16.12.2018 08:00:00 -5,3 -6,1 2 1 18 10 WSW 50 0,0
16.12.2018 07:00:00 -5,6 -6,6 10 5 25 14 W 43 0,0
16.12.2018 06:00:00 -5,9 -7,1 13 7 30 16 WSW 50 0,0
16.12.2018 05:00:00 -4,8 -6,8 22 12 29 16 SW 50 0,0
16.12.2018 04:00:00 -4,9 -6,6 16 9 26 14 SW 50 0,0
16.12.2018 03:00:00 -4,5 -6,0 20 11 26 14 SW 50 0,0
16.12.2018 02:00:00 -5,1 -6,2 14 7 26 14 SW 50 0,0
16.12.2018 01:00:00 -4,6 -5,6 19 11 25 13 SW 50 0,0
16.12.2018 00:00:00 -5,1 -5,9 13 7 16 9 SSW 50 0,0
15.12.2018 23:00:00 -6,8 -7,7 11 6 21 12 SW 50 0,0
15.12.2018 22:00:00 - - - - 21 12 - - -
15.12.2018 21:00:00 -6,0 -6,9 14 8 21 11 SW 50 0,0
15.12.2018 20:00:00 -5,6 -6,6 15 8 22 12 SW 50 0,0
15.12.2018 19:00:00 -5,7 -6,6 16 9 25 13 SSW 50 0,0
15.12.2018 18:00:00 -5,7 -6,5 18 10 25 13 SW 50 0,0
15.12.2018 17:00:00 -5,4 -6,4 15 8 18 10 SSW 50 0,0
15.12.2018 16:00:00 -5,9 -6,8 14 8 18 10 SSW - 0,0
15.12.2018 15:00:00 -5,9 -6,8 13 7 18 10 SW 2,4 0,0
15.12.2018 14:00:00 -6,8 -7,9 12 7 18 10 SW 0,4 0,0
15.12.2018 13:00:00 -6,6 -7,5 12 7 18 10 SW 0,6 0,0
15.12.2018 12:00:00 -6,4 -7,4 11 6 18 10 SW 0,7 0,0
15.12.2018 11:00:00 -6,3 -7,2 13 7 18 10 SSW 1,7 0,0
15.12.2018 10:00:00 -6,3 -7,2 11 6 16 8 SSW 32 0,0
15.12.2018 09:00:00 -6,2 -7,1 8 5 16 9 SSW 1,3 0,0
15.12.2018 08:00:00 -6,0 -6,8 11 6 17 9 SW 0,8 0,0
15.12.2018 07:00:00 -5,6 -6,4 11 6 18 10 SW 1,8 0,0
15.12.2018 06:00:00 -5,5 -6,3 11 6 18 10 SW 0,4 0,0
15.12.2018 05:00:00 -5,4 -6,2 11 6 17 9 SSW - 0,0
15.12.2018 04:00:00 -5,8 -6,7 4 2 9 5 WSW 0,3 0,0
15.12.2018 03:00:00 -6,3 -7,2 3 2 10 5 NNW 0,3 0,0
15.12.2018 02:00:00 -6,0 -6,9 3 2 14 8 WNW 0,5 0,0
15.12.2018 01:00:00 -6,8 -7,8 7 4 14 8 NW 0,4 0,0
15.12.2018 00:00:00 -5,1 -5,9 9 5 16 9 SSW 0,6 0,0
14.12.2018 23:00:00 -5,2 -6,0 8 5 13 7 SW 1,5 0,0
14.12.2018 22:00:00 -5,9 -6,8 7 4 11 6 SW 35 0,0
14.12.2018 21:00:00 -6,1 -7,0 0 0 10 6 N 50 0,0
14.12.2018 20:00:00 -6,2 -7,1 0 0 10 5 N 44 0,0
14.12.2018 19:00:00 -6,0 -6,9 4 2 8 5 WSW 49 0,0
14.12.2018 18:00:00 -6,3 -7,2 4 2 9 5 NNW 26 0,0
14.12.2018 17:00:00 -6,9 -8,0 7 4 11 6 NNW 27 0,0
14.12.2018 16:00:00 -6,2 -7,4 4 2 9 5 NNW 32 0,0
14.12.2018 15:00:00 -6,3 -8,0 5 3 12 6 SSW 50 0,0
14.12.2018 14:00:00 -7,2 -9,1 6 4 12 6 W 50 0,0
14.12.2018 13:00:00 -7,2 -9,1 7 4 13 7 WSW 50 0,0
14.12.2018 12:00:00 -6,9 -9,0 6 3 13 7 WSW 50 0,0
14.12.2018 11:00:00 -7,1 -9,2 6 4 14 8 WSW 50 0,0
14.12.2018 10:00:00 -7,3 -9,4 8 5 14 8 W 50 0,0
14.12.2018 09:00:00 -7,1 -9,5 9 5 14 7 WSW 50 0,0
14.12.2018 08:00:00 -7,8 -9,7 7 4 16 9 WSW 50 0,0
14.12.2018 07:00:00 -8,4 -9,7 8 4 16 9 NW 50 0,0
14.12.2018 06:00:00 -7,1 -8,9 10 5 16 9 WSW 50 0,0
14.12.2018 05:00:00 -6,8 -8,3 12 6 21 11 SW 50 0,0
14.12.2018 04:00:00 -7,3 -8,8 13 7 22 12 WSW 50 0,0
14.12.2018 03:00:00 -7,4 -8,8 16 9 23 12 WSW 50 0,0
14.12.2018 02:00:00 -6,2 -8,2 18 10 27 15 SW 50 0,0
14.12.2018 01:00:00 -6,8 -8,3 18 10 31 17 SW 50 0,0
14.12.2018 00:00:00 -5,3 -7,4 22 12 31 17 WSW 50 0,0
13.12.2018 23:00:00 -4,7 -7,1 24 13 30 16 SW 50 0,0
13.12.2018 22:00:00 -4,9 -7,3 23 12 30 16 WSW 50 0,0
13.12.2018 21:00:00 -4,9 -7,2 24 13 30 16 SW 50 0,0
13.12.2018 20:00:00 -5,6 -7,4 22 12 30 16 WSW 50 0,0
13.12.2018 19:00:00 -5,8 -7,9 23 12 29 16 SW 50 0,0
13.12.2018 18:00:00 -5,9 -8,0 20 11 28 15 SW 50 0,0
13.12.2018 17:00:00 -6,2 -8,2 21 12 28 15 SW 50 0,0
13.12.2018 16:00:00 -6,5 -8,6 22 12 28 15 WSW 50 0,0
13.12.2018 15:00:00 -5,9 -8,3 20 11 25 13 SW 50 0,0
13.12.2018 14:00:00 -6,7 -9,6 18 10 27 15 WSW 50 0,0
13.12.2018 13:00:00 -6,7 -9,1 21 12 27 15 WSW 50 0,0
13.12.2018 12:00:00 -6,7 -8,5 16 9 29 16 SW 50 0,0
13.12.2018 11:00:00 -6,3 -8,6 21 12 29 16 SW 50 0,0
13.12.2018 10:00:00 -5,9 -8,0 22 12 30 16 SW 50 0,0
13.12.2018 09:00:00 -4,8 -6,3 23 12 34 18 SSW 50 0,0
13.12.2018 08:00:00 -3,5 -4,8 24 13 35 19 SSW 50 0,0
13.12.2018 07:00:00 -2,5 -4,7 29 16 35 19 SSW 50 0,0
13.12.2018 06:00:00 -3,0 -5,2 29 16 37 20 SSW 50 0,0
13.12.2018 05:00:00 -3,0 -5,2 30 16 37 20 SSW 50 0,0
13.12.2018 04:00:00 -2,4 -4,4 26 14 31 17 SW 50 0,0
13.12.2018 03:00:00 -2,8 -4,8 21 12 26 14 SW 50 0,0
13.12.2018 02:00:00 -3,7 -5,4 18 10 26 14 WSW 50 0,0
13.12.2018 01:00:00 -3,3 -5,5 19 11 25 14 WSW 50 0,0
13.12.2018 00:00:00 -3,2 -5,1 18 10 21 12 SW 50 0,0
12.12.2018 23:00:00 -3,3 -5,2 12 6 14 8 SW 21 0,0
12.12.2018 22:00:00 -3,7 -5,9 11 6 14 8 WSW 43 0,0
12.12.2018 21:00:00 -3,8 -6,3 7 4 11 6 SW 50 0,0
12.12.2018 20:00:00 -4,9 -6,4 0 0 11 6 N 50 0,0
12.12.2018 19:00:00 -6,1 -8,2 5 3 13 7 NW 50 0,0
12.12.2018 18:00:00 -6,1 -8,2 8 4 16 9 WNW 50 0,0
12.12.2018 17:00:00 -5,8 -7,9 9 5 18 10 NNW 50 0,0
12.12.2018 16:00:00 -5,8 -8,1 12 6 19 10 NW 50 0,0
12.12.2018 15:00:00 -5,6 -7,9 8 5 19 11 NW 50 0,0
12.12.2018 14:00:00 -5,6 -8,0 11 6 19 11 NW 50 0,0
12.12.2018 13:00:00 -6,0 -8,4 13 7 19 11 NW 50 0,0
12.12.2018 12:00:00 -6,1 -8,4 13 7 26 14 NW 50 0,0
12.12.2018 11:00:00 -6,1 -8,7 10 6 26 14 NW 50 0,0
12.12.2018 10:00:00 -5,7 -8,3 19 10 28 15 NW 50 0,0
12.12.2018 09:00:00 -6,0 -8,3 19 11 31 17 NW 50 0,0
12.12.2018 08:00:00 -5,3 -7,6 21 11 33 18 NW 50 0,0
12.12.2018 07:00:00 -5,3 -7,6 21 11 33 18 NNW 50 0,0
12.12.2018 06:00:00 -5,4 -7,7 24 13 33 18 NW 50 0,0
12.12.2018 05:00:00 -5,3 -7,4 18 10 31 17 NW 50 0,0
12.12.2018 04:00:00 -5,2 -7,6 21 12 31 17 NNW 50 0,0
12.12.2018 03:00:00 -5,1 -7,7 19 10 36 19 NNW 50 0,0
12.12.2018 02:00:00 -4,8 -7,6 22 12 37 20 NNW 50 0,0
12.12.2018 01:00:00 -4,3 -7,1 26 14 37 20 NNW 50 0,0
12.12.2018 00:00:00 -4,4 -7,2 23 12 37 20 NNW 50 0,0
11.12.2018 23:00:00 -3,7 -6,5 23 12 39 21 NNW 50 0,0
11.12.2018 22:00:00 -3,7 -6,2 22 12 39 21 NNW 50 0,0
11.12.2018 21:00:00 -3,6 -5,9 25 14 38 20 NNW 50 0,0
11.12.2018 20:00:00 -3,5 -5,7 21 12 39 21 NNW 50 0,0
11.12.2018 19:00:00 -3,3 -5,3 27 15 39 21 NNW 50 0,0
11.12.2018 18:00:00 -3,2 -4,9 23 13 35 19 NNW 50 0,0
11.12.2018 17:00:00 -3,3 -5,3 21 12 38 21 NW 50 0,0
11.12.2018 16:00:00 -2,7 -4,9 24 13 38 21 NNW 50 0,0
11.12.2018 15:00:00 -2,1 -4,1 23 12 40 21 NNW 50 0,0
11.12.2018 14:00:00 -1,7 -3,7 24 13 42 23 NNW 50 0,0
11.12.2018 13:00:00 -1,5 -3,2 25 13 42 23 NNW 17 0,0
11.12.2018 12:00:00 -0,7 -2,7 23 12 38 21 NNW 50 0,0
11.12.2018 11:00:00 -0,5 -2,6 22 12 38 21 N 50 0,0
11.12.2018 10:00:00 -0,3 -2,3 29 16 36 19 N 50 0,0
11.12.2018 09:00:00 -0,4 -2,1 23 12 35 19 N 50 0,0
11.12.2018 08:00:00 -0,7 -2,4 23 12 37 20 NNW 50 0,0
11.12.2018 07:00:00 -1,1 -2,8 24 13 46 25 NNW 50 0,0

tt = Température de l'air
td = dewpoint
ff = Vitesse du vent
fx = gusts
dd = Direction du vent
vv = visibility
rr = Quantités de précipitations

stations d'obs. à proximité